Terminal Aerodrome Forecast
Issued by NWS Cleveland, OH

Home | Current Version | Previous Version | Graphics & Text | Print | Product List | Glossary On
Versions: 1 2 3 4 5 6 7 8 9 10 11 12 13 14
000
FTUS41 KCLE 020258 AAB
TAFTOL
TAF AMD
KTOL 020258Z 0203/0224 24014KT P6SM SCT025 OVC045
     FM020600 24014KT P6SM OVC025
     FM021800 27014G22KT P6SM SCT025 OVC035=

USA.gov is the U.S. government's official web portal to all federal, state and local government web resources and services.